Fairhaven, Maryland
Current Conditions -  °F | °C
As of 7:54 AM on Saturday 01 Nov 2014 (Local Time) from KNAK Reporting Station
Light Rain Light Rain  
Wind Chill: 50°   Ceiling: 2300
Heat Index: 50°   Visibility: 5mi
Dew Point: 45°   Wind: 13mph
Humidity: 83%   Direction: 360°N
Pressure: 29.77"   Gusts: 23mph
Location:  38.7736°N, 76.5792°W
Report Text: KNAK 011154Z AUTO 36011G20KT 5SM -RA OVC023 10/07 A2977 RMK AO2 RAB37 SLP083 P0001 60001 70001 T01000072 10106 20100 51011
Loading
Personal Weather Stations






























Interactive Weather Map
Tropical Storm Tracking
New forecast layout! Learn more

10-Day Weather Forecast

Advertisements
Track Severe Weather on mobile